Flight Track Log - Related Links

Times and Time Zones

All times are in EDT time to prevent confusion due to time zone crossing. See the EJA396 flight status page for this flight to view local times or setup timezone preferences in your user account.

Time Position Orientation Groundspeed Altitude Reporting Facility
EDT Latitude Longitude Course Direction KTS MPH feet Rate Location/Type
Thu 05:21:55 PM 44.9167 -93.2333 358° North 201 231 3,300  Level Minneapolis TRACON
Thu 05:22:29 PM 44.9469 -93.2350 358° North 224 258 5,100 2,313 Climbing Minneapolis Center
Thu 05:23:31 PM 45.0164 -93.2097 14° North 254 292 7,000 1,016 Climbing Minneapolis Center
Thu 05:24:33 PM 45.0622 -93.1172 55° Northeast 289 333 7,200 1,839 Climbing Minneapolis Center
Thu 05:25:35 PM 45.1050 -93.0117 60° Northeast 306 352 10,800 3,216 Climbing Minneapolis Center
Thu 05:26:38 PM 45.1672 -92.8606 60° Northeast 373 429 13,900 3,072 Climbing Minneapolis Center
Thu 05:27:40 PM 45.2214 -92.7256 60° Northeast 391 450 17,200 2,806 Climbing Minneapolis Center
Thu 05:28:42 PM 45.2625 -92.5831 68° East 394 453 19,700 2,129 Climbing Minneapolis Center
Thu 05:29:44 PM 45.2853 -92.4183 79° East 418 481 21,600 2,032 Climbing Minneapolis Center
Thu 05:30:46 PM 45.3083 -92.2481 79° East 433 498 23,900 2,081 Climbing Minneapolis Center
Thu 05:31:48 PM 45.2983 -92.0722 95° East 449 517 25,900 1,887 Climbing Minneapolis Center
Thu 05:32:50 PM 45.2664 -91.8964 104° East 462 532 27,800 1,500 Climbing Minneapolis Center
Thu 05:33:52 PM 45.2286 -91.6792 104° East 472 543 29,000 581 Climbing Minneapolis Center
Thu 05:34:54 PM 45.1947 -91.4844 104° East 495 570 29,000  Level Minneapolis Center
Thu 05:35:57 PM 45.1589 -91.2856 104° East 514 592 29,000  Level Minneapolis Center
Thu 05:36:59 PM 45.1192 -91.0700 105° East 527 606 29,000  Level Minneapolis Center
Thu 05:38:01 PM 45.0822 -90.8706 105° East 527 606 29,000  Level Minneapolis Center
Thu 05:39:03 PM 45.0497 -90.6861 104° East 503 579 29,000  Level Minneapolis Center
Thu 05:40:05 PM 45.0133 -90.4914 105° East 503 579 29,000  Level Minneapolis Center
Thu 05:41:07 PM 44.9686 -90.2558 105° East 517 595 29,000  Level Minneapolis Center
Thu 05:42:09 PM 44.9308 -90.0614 105° East 517 595 29,000  Level Minneapolis Center
Thu 05:43:11 PM 44.8936 -89.8683 105° East 514 592 29,000  Level Minneapolis Center
Thu 05:44:13 PM 44.8569 -89.6844 106° East 507 583 29,000  Level Minneapolis Center
Thu 05:45:15 PM 44.7614 -89.5086 127° Southeast 493 567 29,000 -336 Level Minneapolis Center
Thu 05:46:18 PM 44.6556 -89.3947 143° Southeast 481 554 28,300 -1,056 Descending Minneapolis Center
Thu 05:47:20 PM 44.5569 -89.2917 143° Southeast 447 514 26,800 -1,452 Descending Minneapolis Center
Thu 05:48:22 PM 44.4628 -89.1936 143° Southeast 426 490 25,300 -1,452 Descending Minneapolis Center
Thu 05:49:24 PM 44.3697 -89.0969 143° Southeast 420 483 23,800 -1,597 Descending Minneapolis Center
Thu 05:50:26 PM 44.2633 -88.9872 144° Southeast 409 471 22,000 -1,597 Descending Minneapolis Center
Thu 05:51:28 PM 44.1686 -88.8847 142° Southeast 425 489 20,500 -1,471 Descending Minneapolis Center
Thu 05:52:08 PM 44.1044 -88.8211 145° Southeast 427 491 19,500 -1,059 Descending Chicago Center
Thu 05:53:10 PM 44.0139 -88.7256 143° Southeast 410 472 18,700 -968 Descending Chicago Center
Thu 05:54:12 PM 43.9256 -88.6358 144° Southeast 393 452 17,500 -1,113 Descending Chicago Center
Thu 05:55:14 PM 43.8364 -88.5447 144° Southeast 397 457 16,400 -1,056 Descending Chicago Center
Thu 05:56:17 PM 43.7475 -88.4536 143° Southeast 397 457 15,300 -1,056 Descending Chicago Center
Thu 05:57:19 PM 43.6450 -88.3503 144° Southeast 388 447 14,200 -968 Descending Chicago Center
Thu 05:58:21 PM 43.5608 -88.2639 143° Southeast 374 430 13,300 -581 Descending Chicago Center
Thu 05:59:23 PM 43.4761 -88.1789 144° Southeast 372 428 13,000 -145 Descending Chicago Center
Thu 06:00:25 PM 43.3814 -88.1194 155° Southeast 377 434 13,000 -774 Level Chicago Center
Thu 06:01:27 PM 43.2836 -88.1008 172° South 355 409 11,400 -1,500 Descending Chicago Center
Thu 06:02:29 PM 43.1942 -88.0861 173° South 329 379 9,900 -1,452 Descending Chicago Center
Thu 06:03:31 PM 43.1097 -88.0694 172° South 310 357 8,400 -1,597 Descending Chicago Center
Thu 06:04:33 PM 43.0158 -88.0517 172° South 293 337 6,600 -1,161 Descending Chicago Center
Thu 06:05:35 PM 42.9378 -88.0364 172° South 285 328 6,000 -288 Descending Chicago Center
Thu 06:06:38 PM 42.8706 -87.9894 153° Southeast 280 322 6,000  Level Chicago Center
Thu 06:07:40 PM 42.8083 -87.9258 143° Southeast 279 321 6,000 -339 Level Chicago Center
Thu 06:08:42 PM 42.7464 -87.8625 143° Southeast 279 321 5,300 -968 Descending Chicago Center
Thu 06:09:44 PM 42.6878 -87.7992 142° Southeast 272 313 4,000 -629 Descending Chicago Center
Thu 06:10:46 PM 42.6144 -87.7453 152° Southeast 259 298 4,000  Level Chicago Center
Thu 06:11:48 PM 42.5428 -87.7242 168° South 262 302 4,000  Level Chicago Center
Thu 06:12:50 PM 42.4789 -87.7103 171° South 236 272 4,000 -435 Level Chicago Center
Thu 06:13:52 PM 42.4258 -87.7494 209° Southwest 230 265 3,100 -629 Descending Chicago Center
Thu 06:14:54 PM 42.3861 -87.8244 234° Southwest 222 255 2,700 -674 Descending Chicago Center
Thu 06:16:50 PM 42.4000 -87.8833 288° West 127 146 1,100 -828 Descending Chicago TRACON

Login

Don't have an account? Register now (free) for customized features, flight alerts, and more!